createdAt,value
2022-10-31T00:00:19.070Z,18.90
2022-10-31T00:01:19.019Z,15.40
2022-10-31T00:02:19.149Z,14.10
2022-10-31T00:03:19.345Z,22.50
2022-10-31T00:04:18.990Z,19.90
2022-10-31T00:05:18.974Z,31.40
2022-10-31T00:06:18.981Z,21.80
2022-10-31T00:07:19.450Z,20.40
2022-10-31T00:08:19.025Z,26.90
2022-10-31T00:09:18.913Z,19.90
2022-10-31T00:10:18.902Z,24.60
2022-10-31T00:11:19.084Z,24.80
2022-10-31T00:12:18.886Z,31.40
2022-10-31T00:13:18.951Z,22.10
2022-10-31T00:14:19.085Z,26.00
2022-10-31T00:15:18.832Z,20.10
2022-10-31T00:16:18.825Z,22.70
2022-10-31T00:17:18.817Z,23.90
2022-10-31T00:18:18.804Z,29.10
2022-10-31T00:19:18.773Z,20.50
2022-10-31T00:20:18.764Z,25.50
2022-10-31T00:21:18.754Z,26.90
2022-10-31T00:22:19.014Z,12.10
2022-10-31T00:23:18.728Z,28.10
2022-10-31T00:24:19.675Z,20.70
2022-10-31T00:25:18.694Z,21.40
2022-10-31T00:26:18.691Z,17.10
2022-10-31T00:27:18.708Z,20.30
2022-10-31T00:29:18.648Z,29.10
2022-10-31T00:30:18.642Z,12.70
2022-10-31T00:31:18.616Z,28.30
2022-10-31T00:32:18.614Z,21.10
2022-10-31T00:33:18.599Z,24.90
2022-10-31T00:34:18.579Z,16.20
2022-10-31T00:35:18.608Z,23.90
2022-10-31T00:36:18.554Z,28.90
2022-10-31T00:37:18.550Z,27.40
2022-10-31T00:38:18.539Z,21.70
2022-10-31T00:39:18.529Z,16.20
2022-10-31T00:40:18.500Z,15.70
2022-10-31T00:41:18.488Z,20.90
2022-10-31T00:42:18.496Z,22.70
2022-10-31T00:43:18.463Z,24.20
2022-10-31T00:44:18.451Z,23.80
2022-10-31T00:45:18.432Z,14.10
2022-10-31T00:46:19.390Z,24.30
2022-10-31T00:47:18.441Z,21.90
2022-10-31T00:48:18.414Z,16.60
2022-10-31T00:49:18.383Z,16.20
2022-10-31T00:50:18.372Z,18.30
2022-10-31T00:51:18.362Z,26.40
2022-10-31T00:52:18.592Z,23.50
2022-10-31T00:53:18.325Z,20.20
2022-10-31T00:54:18.324Z,17.80
2022-10-31T00:55:18.313Z,26.40
2022-10-31T00:56:18.295Z,18.70
2022-10-31T00:57:18.295Z,20.00
2022-10-31T00:58:18.267Z,11.80
2022-10-31T00:59:18.253Z,18.40
2022-10-31T01:00:18.251Z,12.80
2022-10-31T01:01:18.335Z,17.10
2022-10-31T01:02:18.351Z,13.30
2022-10-31T01:03:18.197Z,12.40
2022-10-31T01:04:18.195Z,36.00
2022-10-31T01:05:18.177Z,18.30
2022-10-31T01:06:18.167Z,15.70
2022-10-31T01:07:18.142Z,18.60
2022-10-31T01:08:18.140Z,13.00
2022-10-31T01:09:18.127Z,16.60
2022-10-31T01:10:18.116Z,22.30
2022-10-31T01:11:18.099Z,11.20
2022-10-31T01:12:18.092Z,18.60
2022-10-31T01:13:18.756Z,23.50
2022-10-31T01:14:18.063Z,26.50
2022-10-31T01:15:18.172Z,21.60
2022-10-31T01:16:18.240Z,26.50
2022-10-31T01:17:18.012Z,16.40
2022-10-31T01:18:18.022Z,20.20
2022-10-31T01:19:17.995Z,11.70
2022-10-31T01:20:17.985Z,11.60
2022-10-31T01:21:17.972Z,13.30
2022-10-31T01:22:17.953Z,13.10
2022-10-31T01:23:17.932Z,18.90
2022-10-31T01:24:18.133Z,21.80
2022-10-31T01:25:17.921Z,21.40
2022-10-31T01:26:17.915Z,19.40
2022-10-31T01:27:17.894Z,11.60
2022-10-31T01:28:17.915Z,13.50
2022-10-31T01:29:17.863Z,20.90
2022-10-31T01:30:17.858Z,21.10
2022-10-31T01:31:17.854Z,17.90
2022-10-31T01:32:17.829Z,22.40
2022-10-31T01:33:17.813Z,26.10
2022-10-31T01:34:17.801Z,11.40
2022-10-31T01:35:17.786Z,17.70
2022-10-31T01:36:17.777Z,24.10
2022-10-31T01:37:17.756Z,29.90
2022-10-31T01:38:17.784Z,19.90
2022-10-31T01:39:17.826Z,22.00
2022-10-31T01:40:17.717Z,21.80
2022-10-31T01:41:17.906Z,12.80
2022-10-31T01:42:17.967Z,21.50
2022-10-31T01:43:17.707Z,14.90
2022-10-31T01:44:17.688Z,12.60
2022-10-31T01:45:17.647Z,11.60
2022-10-31T01:46:17.660Z,16.20
2022-10-31T01:47:17.622Z,33.40
2022-10-31T01:48:17.774Z,16.80
2022-10-31T01:49:17.589Z,14.10
2022-10-31T01:50:17.581Z,16.60
2022-10-31T01:51:17.570Z,22.40
2022-10-31T01:52:18.512Z,17.10
2022-10-31T01:53:19.872Z,16.00
2022-10-31T01:54:17.550Z,28.10
2022-10-31T01:55:17.532Z,10.90
2022-10-31T01:56:17.503Z,18.30
2022-10-31T01:57:17.511Z,29.80
2022-10-31T01:58:19.980Z,23.80
2022-10-31T01:59:17.463Z,17.80
2022-10-31T02:00:17.962Z,15.30
2022-10-31T02:01:17.600Z,12.70
2022-10-31T02:03:49.721Z,11.00
2022-10-31T02:04:26.896Z,10.50
2022-10-31T02:05:26.620Z,15.70
2022-10-31T02:06:26.599Z,10.50
2022-10-31T02:07:26.595Z,15.00
2022-10-31T02:08:26.582Z,20.10
2022-10-31T02:09:26.561Z,14.80
2022-10-31T02:10:27.212Z,17.30
2022-10-31T02:11:28.463Z,17.30
2022-10-31T02:12:26.521Z,17.50
2022-10-31T02:14:26.493Z,20.90
2022-10-31T02:15:26.485Z,11.50
2022-10-31T02:16:28.144Z,26.60
2022-10-31T02:17:26.462Z,30.70
2022-10-31T02:18:26.454Z,19.30
2022-10-31T02:19:26.438Z,23.10
2022-10-31T02:20:27.006Z,14.60
2022-10-31T02:21:26.413Z,21.40
2022-10-31T02:22:26.648Z,17.00
2022-10-31T02:23:26.373Z,13.80
2022-10-31T02:24:26.356Z,10.90
2022-10-31T02:25:26.355Z,14.10
2022-10-31T02:26:26.344Z,11.50
2022-10-31T02:27:26.323Z,16.60
2022-10-31T02:28:27.158Z,12.50
2022-10-31T02:29:26.886Z,15.10
2022-10-31T02:30:26.292Z,13.70
2022-10-31T02:31:26.266Z,18.40
2022-10-31T02:32:27.278Z,12.00
2022-10-31T02:33:26.256Z,15.80
2022-10-31T02:34:27.287Z,10.60
2022-10-31T02:35:30.906Z,14.10
2022-10-31T02:36:26.219Z,16.90
2022-10-31T02:37:26.189Z,16.50
2022-10-31T02:38:26.189Z,20.50
2022-10-31T02:39:26.369Z,22.30
2022-10-31T02:40:26.919Z,16.60
2022-10-31T02:41:26.141Z,11.20
2022-10-31T02:42:26.950Z,21.70
2022-10-31T02:43:26.112Z,18.60
2022-10-31T02:44:26.467Z,11.50
2022-10-31T02:45:27.010Z,11.90
2022-10-31T02:46:29.613Z,11.40
2022-10-31T02:47:26.284Z,17.10
2022-10-31T02:48:26.057Z,15.40
2022-10-31T02:49:26.030Z,20.80
2022-10-31T02:50:26.033Z,23.60
2022-10-31T02:51:26.011Z,18.80
2022-10-31T02:52:26.004Z,12.00
2022-10-31T02:53:25.980Z,16.40
2022-10-31T02:54:25.970Z,19.30
2022-10-31T02:55:25.962Z,11.80
2022-10-31T02:56:25.944Z,22.50
2022-10-31T02:57:26.728Z,27.60
2022-10-31T02:58:27.018Z,16.40
2022-10-31T02:59:25.913Z,11.40
2022-10-31T03:00:26.086Z,15.50
2022-10-31T03:01:26.754Z,12.30
2022-10-31T03:02:27.829Z,9.70
2022-10-31T03:03:26.964Z,18.80
2022-10-31T03:04:26.243Z,23.30
2022-10-31T03:05:25.835Z,22.30
2022-10-31T03:06:25.825Z,24.80
2022-10-31T03:07:25.805Z,22.20
2022-10-31T03:08:25.796Z,15.00
2022-10-31T03:09:25.776Z,14.20
2022-10-31T03:10:25.773Z,22.90
2022-10-31T03:11:25.757Z,31.30
2022-10-31T03:12:25.738Z,23.40
2022-10-31T03:13:25.729Z,26.80
2022-10-31T03:14:26.017Z,28.30
2022-10-31T03:15:25.698Z,21.30
2022-10-31T03:16:25.688Z,10.40
2022-10-31T03:17:25.711Z,24.20
2022-10-31T03:18:25.658Z,10.60
2022-10-31T03:19:25.638Z,15.10
2022-10-31T03:20:25.640Z,18.00
2022-10-31T03:21:26.609Z,17.90
2022-10-31T03:22:25.600Z,25.50
2022-10-31T03:23:25.604Z,10.40
2022-10-31T03:24:25.641Z,16.20
2022-10-31T03:25:25.812Z,11.40
2022-10-31T03:26:25.557Z,18.30
2022-10-31T03:27:26.282Z,19.20
2022-10-31T03:28:26.343Z,9.90
2022-10-31T03:29:25.901Z,20.50
2022-10-31T03:30:25.502Z,14.70
2022-10-31T03:31:25.482Z,26.80
2022-10-31T03:32:25.522Z,19.10
2022-10-31T03:33:25.469Z,11.20
2022-10-31T03:34:25.453Z,17.50
2022-10-31T03:35:25.705Z,17.50
2022-10-31T03:36:25.423Z,13.60
2022-10-31T03:37:26.283Z,17.10
2022-10-31T03:38:25.383Z,21.00
2022-10-31T03:39:25.854Z,15.20
2022-10-31T03:40:25.362Z,11.00
2022-10-31T03:41:25.354Z,19.10
2022-10-31T03:42:25.345Z,11.60
2022-10-31T03:43:25.532Z,18.20
2022-10-31T03:44:25.545Z,10.70
2022-10-31T03:45:25.324Z,13.30
2022-10-31T03:46:25.288Z,10.80
2022-10-31T03:47:25.288Z,16.70
2022-10-31T03:48:25.266Z,14.10
2022-10-31T03:49:25.269Z,16.80
2022-10-31T03:50:25.299Z,11.70
2022-10-31T03:51:25.858Z,14.30
2022-10-31T03:52:26.918Z,22.70
2022-10-31T03:53:25.219Z,16.90
2022-10-31T03:54:25.189Z,19.70
2022-10-31T03:55:25.172Z,11.00
2022-10-31T03:56:26.100Z,13.80
2022-10-31T03:57:25.170Z,33.30
2022-10-31T03:58:25.149Z,13.90
2022-10-31T03:59:25.131Z,13.80
2022-10-31T04:00:25.107Z,16.90
2022-10-31T04:01:25.298Z,17.90
2022-10-31T04:02:26.125Z,24.40
2022-10-31T04:03:25.266Z,13.20
2022-10-31T04:04:25.316Z,16.60
2022-10-31T04:05:25.397Z,11.30
2022-10-31T04:06:25.422Z,20.20
2022-10-31T04:07:25.034Z,13.50
2022-10-31T04:08:25.042Z,12.10
2022-10-31T04:09:24.992Z,14.60
2022-10-31T04:10:31.859Z,12.80
2022-10-31T04:11:26.203Z,20.20
2022-10-31T04:12:24.953Z,20.40
2022-10-31T04:13:25.842Z,15.30
2022-10-31T04:14:24.914Z,23.40
2022-10-31T04:15:25.869Z,20.00
2022-10-31T04:16:24.914Z,19.50
2022-10-31T04:17:24.884Z,14.20
2022-10-31T04:18:24.871Z,15.20
2022-10-31T04:19:24.861Z,22.30
2022-10-31T04:20:24.836Z,31.20
2022-10-31T04:21:25.174Z,19.30
2022-10-31T04:22:24.815Z,14.10
2022-10-31T04:23:24.818Z,13.00
2022-10-31T04:24:24.786Z,21.40
2022-10-31T04:25:24.794Z,23.70
2022-10-31T04:26:25.378Z,13.90
2022-10-31T04:27:25.425Z,28.90
2022-10-31T04:28:24.758Z,30.90
2022-10-31T04:29:24.727Z,20.70
2022-10-31T04:30:25.567Z,14.80
2022-10-31T04:31:24.703Z,22.40
2022-10-31T04:32:25.138Z,11.90
2022-10-31T04:33:26.218Z,18.10
2022-10-31T04:34:24.717Z,23.70
2022-10-31T04:35:24.659Z,19.50
2022-10-31T04:36:24.630Z,19.80
2022-10-31T04:37:25.364Z,18.00
2022-10-31T04:38:25.409Z,19.20
2022-10-31T04:39:26.671Z,11.60
2022-10-31T04:40:25.523Z,11.60
2022-10-31T04:41:25.061Z,15.00
2022-10-31T04:42:24.570Z,15.70
2022-10-31T04:43:24.656Z,10.20
2022-10-31T04:44:24.693Z,14.60
2022-10-31T04:45:24.518Z,11.90
2022-10-31T04:46:24.792Z,11.30
2022-10-31T04:47:24.742Z,18.20
2022-10-31T04:48:24.472Z,13.70
2022-10-31T04:49:24.968Z,10.60
2022-10-31T04:50:24.444Z,25.10
2022-10-31T04:51:24.450Z,21.70
2022-10-31T04:52:24.423Z,13.50
2022-10-31T04:53:24.403Z,15.40
2022-10-31T04:54:24.401Z,15.30
2022-10-31T04:55:24.384Z,12.00
2022-10-31T04:56:24.370Z,10.60
2022-10-31T04:57:24.354Z,14.00
2022-10-31T04:58:24.349Z,27.40
2022-10-31T04:59:24.358Z,18.80
2022-10-31T05:00:24.322Z,27.30
2022-10-31T05:01:24.409Z,14.80
2022-10-31T05:02:24.347Z,12.00
2022-10-31T05:03:24.276Z,14.10
2022-10-31T05:04:24.266Z,12.40
2022-10-31T05:05:24.247Z,10.70
2022-10-31T05:06:24.236Z,11.70
2022-10-31T05:07:24.243Z,10.60
2022-10-31T05:08:24.217Z,28.30
2022-10-31T05:09:24.208Z,12.60
2022-10-31T05:10:24.183Z,14.70
2022-10-31T05:11:24.168Z,14.00
2022-10-31T05:12:24.170Z,10.50
2022-10-31T05:13:24.144Z,13.90
2022-10-31T05:14:24.124Z,15.10
2022-10-31T05:15:24.379Z,13.00
2022-10-31T05:16:24.099Z,14.20
2022-10-31T05:17:24.106Z,19.60
2022-10-31T05:18:24.081Z,27.60
2022-10-31T05:19:24.063Z,15.40
2022-10-31T05:20:24.050Z,23.60
2022-10-31T05:21:24.999Z,15.10
2022-10-31T05:22:24.042Z,13.50
2022-10-31T05:23:24.012Z,15.60
2022-10-31T05:24:24.002Z,19.50
2022-10-31T05:25:23.992Z,22.00
2022-10-31T05:26:23.972Z,16.70
2022-10-31T05:27:24.922Z,11.10
2022-10-31T05:28:23.950Z,12.10
2022-10-31T05:29:23.943Z,12.80
2022-10-31T05:30:23.934Z,16.40
2022-10-31T05:31:23.920Z,16.20
2022-10-31T05:32:23.893Z,10.90
2022-10-31T05:33:23.878Z,10.70
2022-10-31T05:34:23.880Z,14.40
2022-10-31T05:35:23.864Z,25.20
2022-10-31T05:36:23.835Z,15.30
2022-10-31T05:37:23.835Z,21.40
2022-10-31T05:38:24.087Z,16.30
2022-10-31T05:39:23.801Z,13.50
2022-10-31T05:40:23.788Z,15.30
2022-10-31T05:41:23.778Z,18.70
2022-10-31T05:42:23.778Z,26.00
2022-10-31T05:43:24.704Z,17.40
2022-10-31T05:44:24.696Z,15.20
2022-10-31T05:45:23.730Z,14.20
2022-10-31T05:46:23.762Z,19.80
2022-10-31T05:47:23.708Z,18.40
2022-10-31T05:48:23.687Z,11.30
2022-10-31T05:49:23.684Z,23.50
2022-10-31T05:50:23.649Z,11.10
2022-10-31T05:51:23.667Z,18.00
2022-10-31T05:52:23.630Z,16.50
2022-10-31T05:53:24.577Z,10.50
2022-10-31T05:54:24.558Z,17.40
2022-10-31T05:55:23.590Z,11.80
2022-10-31T05:56:23.582Z,15.80
2022-10-31T05:57:23.560Z,30.40
2022-10-31T05:58:24.519Z,19.50
2022-10-31T05:59:24.488Z,13.60
2022-10-31T06:00:23.527Z,22.70
2022-10-31T06:01:23.590Z,20.40
2022-10-31T06:02:23.499Z,15.30
2022-10-31T06:03:23.496Z,17.70
2022-10-31T06:04:23.526Z,21.30
2022-10-31T06:05:23.461Z,12.80
2022-10-31T06:06:23.453Z,17.90
2022-10-31T06:07:23.441Z,25.70
2022-10-31T06:08:24.364Z,22.70
2022-10-31T06:09:23.438Z,12.00
2022-10-31T06:10:23.393Z,16.20
2022-10-31T06:11:23.383Z,12.30
2022-10-31T06:12:23.363Z,9.90
2022-10-31T06:13:23.354Z,17.80
2022-10-31T06:14:24.285Z,13.00
2022-10-31T06:15:24.349Z,21.60
2022-10-31T06:16:23.326Z,12.60
2022-10-31T06:17:23.295Z,11.80
2022-10-31T06:18:23.305Z,17.20
2022-10-31T06:19:23.296Z,13.90
2022-10-31T06:20:23.295Z,11.50
2022-10-31T06:21:23.282Z,20.30
2022-10-31T06:22:23.256Z,14.40
2022-10-31T06:23:24.176Z,10.50
2022-10-31T06:24:23.208Z,10.30
2022-10-31T06:25:23.207Z,16.30
2022-10-31T06:26:23.187Z,15.50
2022-10-31T06:27:23.177Z,12.80
2022-10-31T06:28:24.108Z,12.10
2022-10-31T06:29:23.150Z,18.10
2022-10-31T06:30:23.154Z,22.10
2022-10-31T06:31:23.119Z,16.80
2022-10-31T06:32:23.100Z,22.50
2022-10-31T06:33:23.089Z,13.10
2022-10-31T06:34:24.019Z,28.30
2022-10-31T06:35:23.069Z,15.60
2022-10-31T06:36:23.101Z,21.10
2022-10-31T06:37:23.039Z,15.90
2022-10-31T06:38:23.023Z,22.90
2022-10-31T06:39:23.011Z,19.20
2022-10-31T06:40:23.007Z,15.10
2022-10-31T06:41:23.119Z,12.90
2022-10-31T06:42:22.971Z,15.20
2022-10-31T06:43:22.977Z,13.60
2022-10-31T06:44:22.942Z,12.10
2022-10-31T06:45:22.951Z,12.20
2022-10-31T06:46:22.912Z,11.40
2022-10-31T06:47:22.908Z,11.60
2022-10-31T06:48:23.077Z,13.20
2022-10-31T06:49:22.894Z,22.00
2022-10-31T06:50:22.890Z,22.90
2022-10-31T06:51:22.854Z,17.10
2022-10-31T06:52:22.847Z,27.30
2022-10-31T06:53:22.826Z,21.50
2022-10-31T06:54:22.816Z,11.80
2022-10-31T06:55:22.804Z,12.50
2022-10-31T06:56:22.795Z,20.70
2022-10-31T06:57:22.785Z,29.10
2022-10-31T06:58:22.755Z,15.20
2022-10-31T06:59:22.757Z,21.70
2022-10-31T07:00:22.747Z,12.60
2022-10-31T07:01:22.876Z,25.80
2022-10-31T07:02:22.782Z,12.90
2022-10-31T07:03:22.694Z,11.70
2022-10-31T07:04:22.678Z,22.10
2022-10-31T07:05:22.676Z,15.30
2022-10-31T07:06:22.661Z,26.10
2022-10-31T07:07:22.647Z,22.00
2022-10-31T07:08:22.629Z,18.90
2022-10-31T07:09:22.623Z,13.90
2022-10-31T07:10:22.609Z,15.90
2022-10-31T07:11:22.589Z,33.00
2022-10-31T07:12:22.590Z,13.90
2022-10-31T07:13:22.569Z,16.20
2022-10-31T07:14:22.549Z,15.50
2022-10-31T07:15:22.550Z,14.40
2022-10-31T07:16:22.522Z,11.90
2022-10-31T07:17:26.040Z,15.50
2022-10-31T07:18:23.490Z,18.30
2022-10-31T07:19:22.490Z,12.50
2022-10-31T07:20:22.473Z,11.50
2022-10-31T07:21:22.461Z,32.60
2022-10-31T07:22:22.444Z,19.30
2022-10-31T07:23:22.430Z,12.60
2022-10-31T07:24:22.434Z,21.00
2022-10-31T07:25:22.402Z,20.40
2022-10-31T07:26:22.392Z,14.00
2022-10-31T07:27:22.373Z,17.30
2022-10-31T07:28:22.373Z,16.30
2022-10-31T07:29:22.354Z,31.10
2022-10-31T07:30:22.343Z,11.90
2022-10-31T07:31:22.355Z,14.00
2022-10-31T07:32:22.315Z,16.50
2022-10-31T07:33:22.303Z,25.10
2022-10-31T07:34:22.285Z,19.20
2022-10-31T07:35:22.285Z,14.30
2022-10-31T07:36:22.268Z,17.90
2022-10-31T07:37:22.245Z,25.50
2022-10-31T07:38:22.252Z,12.30
2022-10-31T07:39:22.216Z,15.40
2022-10-31T07:40:22.214Z,16.00
2022-10-31T07:41:22.196Z,14.60
2022-10-31T07:42:22.191Z,19.30
2022-10-31T07:43:22.186Z,12.60
2022-10-31T07:44:22.225Z,13.90
2022-10-31T07:45:22.148Z,26.50
2022-10-31T07:46:22.139Z,14.90
2022-10-31T07:47:22.120Z,24.20
2022-10-31T07:48:22.120Z,24.80
2022-10-31T07:49:22.128Z,30.80
2022-10-31T07:50:22.099Z,17.80
2022-10-31T07:51:22.069Z,14.10
2022-10-31T07:52:22.059Z,20.30
2022-10-31T07:53:22.040Z,20.70
2022-10-31T07:54:22.059Z,21.30
2022-10-31T07:55:22.033Z,21.90
2022-10-31T07:56:22.017Z,22.40
2022-10-31T07:57:25.145Z,17.30
2022-10-31T07:58:22.012Z,21.00
2022-10-31T07:59:21.959Z,11.30
2022-10-31T08:00:21.958Z,22.00
2022-10-31T08:01:21.932Z,16.60
2022-10-31T08:02:21.922Z,22.40
2022-10-31T08:03:21.924Z,24.60
2022-10-31T08:04:21.903Z,10.90
2022-10-31T08:05:21.883Z,19.60
2022-10-31T08:06:21.872Z,15.30
2022-10-31T08:07:21.928Z,22.80
2022-10-31T08:08:21.923Z,17.70
2022-10-31T08:09:21.824Z,13.60
2022-10-31T08:10:21.825Z,12.30
2022-10-31T08:11:21.796Z,14.90
2022-10-31T08:12:22.748Z,19.90
2022-10-31T08:13:21.785Z,17.40
2022-10-31T08:14:21.775Z,12.60
2022-10-31T08:15:21.747Z,16.70
2022-10-31T08:16:21.748Z,27.40
2022-10-31T08:17:21.726Z,24.00
2022-10-31T08:18:21.727Z,21.10
2022-10-31T08:19:21.937Z,21.80
2022-10-31T08:20:21.689Z,19.50
2022-10-31T08:21:21.668Z,24.50
2022-10-31T08:22:21.657Z,12.00
2022-10-31T08:23:22.598Z,18.10
2022-10-31T08:24:21.641Z,27.50
2022-10-31T08:25:21.609Z,13.10
2022-10-31T08:26:21.609Z,22.40
2022-10-31T08:27:21.591Z,21.80
2022-10-31T08:28:21.592Z,24.10
2022-10-31T08:29:21.570Z,11.90
2022-10-31T08:30:21.560Z,17.80
2022-10-31T08:31:21.564Z,15.40
2022-10-31T08:32:21.528Z,18.00
2022-10-31T08:33:21.522Z,19.30
2022-10-31T08:34:21.526Z,29.30
2022-10-31T08:35:21.498Z,20.80
2022-10-31T08:36:21.512Z,16.40
2022-10-31T08:37:21.460Z,31.50
2022-10-31T08:38:21.463Z,23.80
2022-10-31T08:39:21.432Z,23.60
2022-10-31T08:40:21.450Z,16.10
2022-10-31T08:41:21.413Z,12.10
2022-10-31T08:42:21.403Z,20.30
2022-10-31T08:43:21.396Z,17.30
2022-10-31T08:44:21.410Z,22.00
2022-10-31T08:45:21.354Z,23.20
2022-10-31T08:46:21.340Z,26.30
2022-10-31T08:47:21.325Z,20.20
2022-10-31T08:48:21.325Z,22.10
2022-10-31T08:49:21.300Z,19.60
2022-10-31T08:50:21.295Z,21.60
2022-10-31T08:51:21.286Z,13.50
2022-10-31T08:52:23.457Z,40.40
2022-10-31T08:53:22.257Z,27.70
2022-10-31T08:54:21.247Z,31.00
2022-10-31T08:55:21.219Z,12.90
2022-10-31T08:56:21.222Z,19.70
2022-10-31T08:57:21.215Z,13.70
2022-10-31T08:58:21.198Z,34.50
2022-10-31T08:59:21.181Z,34.70
2022-10-31T09:00:21.168Z,24.60
2022-10-31T09:01:21.228Z,28.50
2022-10-31T09:02:21.235Z,25.10
2022-10-31T09:03:21.130Z,12.90
2022-10-31T09:04:21.120Z,20.60
2022-10-31T09:05:21.090Z,30.30
2022-10-31T09:06:21.126Z,13.90
2022-10-31T09:07:21.625Z,28.50
2022-10-31T09:08:21.068Z,19.10
2022-10-31T09:09:21.040Z,20.40
2022-10-31T09:10:21.035Z,21.10
2022-10-31T09:11:21.015Z,25.60
2022-10-31T09:12:21.010Z,12.50
2022-10-31T09:13:21.003Z,17.50
2022-10-31T09:14:20.984Z,25.30
2022-10-31T09:15:21.928Z,20.40
2022-10-31T09:16:20.953Z,16.80
2022-10-31T09:17:20.944Z,27.50
2022-10-31T09:18:20.924Z,35.90
2022-10-31T09:19:20.922Z,24.50
2022-10-31T09:20:20.897Z,33.90
2022-10-31T09:21:20.888Z,12.30
2022-10-31T09:22:20.882Z,22.20
2022-10-31T09:23:20.919Z,15.50
2022-10-31T09:24:20.876Z,29.80
2022-10-31T09:25:20.838Z,20.80
2022-10-31T09:26:20.826Z,19.60
2022-10-31T09:27:20.840Z,25.70
2022-10-31T09:28:20.801Z,14.50
2022-10-31T09:29:20.785Z,33.90
2022-10-31T09:30:20.776Z,32.40
2022-10-31T09:31:20.760Z,23.20
2022-10-31T09:32:20.759Z,42.60
2022-10-31T09:33:20.743Z,25.60
2022-10-31T09:34:20.724Z,20.90
2022-10-31T09:35:24.695Z,24.30
2022-10-31T09:36:21.690Z,29.70
2022-10-31T09:37:20.700Z,24.30
2022-10-31T09:38:20.661Z,22.70
2022-10-31T09:39:20.651Z,18.80
2022-10-31T09:40:20.644Z,23.20
2022-10-31T09:41:20.631Z,42.40
2022-10-31T09:42:20.672Z,20.90
2022-10-31T09:43:20.613Z,19.50
2022-10-31T09:44:20.595Z,18.40
2022-10-31T09:45:20.582Z,26.00
2022-10-31T09:46:20.574Z,31.00
2022-10-31T09:47:21.357Z,29.50
2022-10-31T09:48:20.573Z,26.20
2022-10-31T09:49:20.614Z,39.10
2022-10-31T09:50:20.512Z,28.60
2022-10-31T09:51:20.505Z,23.50
2022-10-31T09:52:20.494Z,32.20
2022-10-31T09:53:20.465Z,27.80
2022-10-31T09:54:20.457Z,41.00
2022-10-31T09:55:20.435Z,33.10
2022-10-31T09:56:20.464Z,53.80
2022-10-31T09:57:20.439Z,42.60
2022-10-31T09:58:20.408Z,42.00
2022-10-31T09:59:20.395Z,24.80
2022-10-31T10:00:20.393Z,31.20
2022-10-31T10:01:20.535Z,42.60
2022-10-31T10:02:20.420Z,47.20
2022-10-31T10:03:20.340Z,52.00
2022-10-31T10:04:21.029Z,38.50
2022-10-31T10:05:20.317Z,57.70
2022-10-31T10:06:20.309Z,38.80
2022-10-31T10:07:20.289Z,56.30
2022-10-31T10:08:20.281Z,52.30
2022-10-31T10:10:20.383Z,59.60
2022-10-31T10:11:20.252Z,43.30
2022-10-31T10:12:20.237Z,65.20
2022-10-31T10:13:20.208Z,65.20
2022-10-31T10:14:20.202Z,53.00
2022-10-31T10:15:20.181Z,61.10
2022-10-31T10:16:20.185Z,47.80
2022-10-31T10:17:20.153Z,54.80
2022-10-31T10:18:20.142Z,50.00
2022-10-31T10:19:20.133Z,48.50
2022-10-31T10:20:20.738Z,62.40
2022-10-31T10:21:20.123Z,50.60
2022-10-31T10:22:20.091Z,66.30
2022-10-31T10:23:20.079Z,64.60
2022-10-31T10:24:20.065Z,46.10
2022-10-31T10:25:20.045Z,59.00
2022-10-31T10:26:20.174Z,62.70
2022-10-31T10:27:22.396Z,54.80
2022-10-31T10:28:20.029Z,53.20
2022-10-31T10:29:19.999Z,63.00
2022-10-31T10:30:20.040Z,58.90
2022-10-31T10:31:20.001Z,53.50
2022-10-31T10:32:19.963Z,55.90
2022-10-31T10:33:19.943Z,57.60
2022-10-31T10:34:19.937Z,40.90
2022-10-31T10:35:19.919Z,61.90
2022-10-31T10:36:19.919Z,68.20
2022-10-31T10:37:19.886Z,52.20
2022-10-31T10:38:19.889Z,47.40
2022-10-31T10:39:19.867Z,40.50
2022-10-31T10:40:20.022Z,50.40
2022-10-31T10:41:19.864Z,69.70
2022-10-31T10:42:19.841Z,60.10
2022-10-31T10:43:19.825Z,63.20
2022-10-31T10:44:19.802Z,42.00
2022-10-31T10:45:19.792Z,68.00
2022-10-31T10:46:19.791Z,61.90
2022-10-31T10:47:19.779Z,57.60
2022-10-31T10:48:19.763Z,66.30
2022-10-31T10:49:19.743Z,70.70
2022-10-31T10:50:19.795Z,88.30
2022-10-31T10:51:31.998Z,62.90
2022-10-31T10:52:39.809Z,56.90
2022-10-31T10:53:20.699Z,58.70
2022-10-31T10:54:19.675Z,59.50
2022-10-31T10:55:19.665Z,65.40
2022-10-31T10:56:19.646Z,55.30
2022-10-31T10:57:19.627Z,54.60
2022-10-31T10:58:19.616Z,68.40
2022-10-31T10:59:19.596Z,64.30
2022-10-31T11:00:19.695Z,64.80
2022-10-31T11:01:19.580Z,73.20
2022-10-31T11:02:19.559Z,70.90
2022-10-31T11:03:19.546Z,61.60
2022-10-31T11:04:19.538Z,72.50
2022-10-31T11:05:19.529Z,72.40
2022-10-31T11:06:19.509Z,63.50
2022-10-31T11:07:19.494Z,48.00
2022-10-31T11:08:22.405Z,66.70
2022-10-31T11:09:20.501Z,64.20
2022-10-31T11:10:19.540Z,72.70
2022-10-31T11:11:19.440Z,70.10
2022-10-31T11:12:19.462Z,77.90
2022-10-31T11:13:19.421Z,77.90
2022-10-31T11:14:19.403Z,64.00
2022-10-31T11:15:19.422Z,64.30
2022-10-31T11:16:19.384Z,70.30
2022-10-31T11:17:19.364Z,72.00
2022-10-31T11:18:19.400Z,64.70
2022-10-31T11:19:19.363Z,69.70
2022-10-31T11:20:19.417Z,69.80
2022-10-31T11:21:19.305Z,68.50
2022-10-31T11:22:19.328Z,66.10
2022-10-31T11:23:19.327Z,65.20
2022-10-31T11:24:19.275Z,56.90
2022-10-31T11:25:19.268Z,64.30
2022-10-31T11:26:19.256Z,71.00
2022-10-31T11:27:20.196Z,62.40
2022-10-31T11:28:19.229Z,75.80
2022-10-31T11:29:19.208Z,69.10
2022-10-31T11:30:19.206Z,68.60
2022-10-31T11:31:19.178Z,66.40
2022-10-31T11:32:19.157Z,68.20
2022-10-31T11:33:20.101Z,81.80
2022-10-31T11:34:19.138Z,81.60
2022-10-31T11:35:19.139Z,78.40
2022-10-31T11:36:19.123Z,78.00
2022-10-31T11:37:19.100Z,78.50
2022-10-31T11:38:19.081Z,76.10
2022-10-31T11:39:19.081Z,60.20
2022-10-31T11:40:19.061Z,67.60
2022-10-31T11:41:19.067Z,67.20
2022-10-31T11:42:19.024Z,70.80
2022-10-31T11:43:19.019Z,67.30
2022-10-31T11:44:19.000Z,84.00
2022-10-31T11:45:19.004Z,73.40
2022-10-31T11:46:18.974Z,71.10
2022-10-31T11:47:18.973Z,71.70
2022-10-31T11:48:18.954Z,70.70
2022-10-31T11:49:18.944Z,65.30
2022-10-31T11:50:18.926Z,81.20
2022-10-31T11:51:19.879Z,71.00
2022-10-31T11:52:18.906Z,58.10
2022-10-31T11:53:18.897Z,80.20
2022-10-31T11:54:18.876Z,70.90
2022-10-31T11:55:18.877Z,66.50
2022-10-31T11:56:18.847Z,75.90
2022-10-31T11:57:18.835Z,73.70
2022-10-31T11:58:18.817Z,74.30
2022-10-31T11:59:18.817Z,84.30
2022-10-31T12:00:18.869Z,78.70
2022-10-31T12:01:18.838Z,77.80
2022-10-31T12:02:18.972Z,74.70
2022-10-31T12:03:18.807Z,82.00
2022-10-31T12:04:18.740Z,74.10
2022-10-31T12:05:18.740Z,63.90
2022-10-31T12:06:18.720Z,78.50
2022-10-31T12:07:18.749Z,70.20
2022-10-31T12:08:18.731Z,77.80
2022-10-31T12:09:18.673Z,62.60
2022-10-31T12:10:18.672Z,72.10
2022-10-31T12:11:18.652Z,78.70
2022-10-31T12:12:18.651Z,63.00
2022-10-31T12:13:18.622Z,58.30
2022-10-31T12:14:18.605Z,69.90
2022-10-31T12:15:18.615Z,74.20
2022-10-31T12:16:18.584Z,68.30
2022-10-31T12:17:18.574Z,82.60
2022-10-31T12:18:18.573Z,66.10
2022-10-31T12:19:18.544Z,64.90
2022-10-31T12:20:18.537Z,79.60
2022-10-31T12:21:18.523Z,76.70
2022-10-31T12:22:18.516Z,69.20
2022-10-31T12:23:18.496Z,74.00
2022-10-31T12:24:18.486Z,65.50
2022-10-31T12:25:18.479Z,64.30
2022-10-31T12:26:18.454Z,65.10
2022-10-31T12:27:18.476Z,87.40
2022-10-31T12:28:18.428Z,64.60
2022-10-31T12:29:18.430Z,58.40
2022-10-31T12:30:18.419Z,67.90
2022-10-31T12:31:18.399Z,74.40
2022-10-31T12:32:18.379Z,77.60
2022-10-31T12:33:18.373Z,64.80
2022-10-31T12:34:18.352Z,64.00
2022-10-31T12:35:18.352Z,78.70
2022-10-31T12:36:18.322Z,60.90
2022-10-31T12:37:18.311Z,76.90
2022-10-31T12:38:18.309Z,85.90
2022-10-31T12:39:18.283Z,64.00
2022-10-31T12:40:18.282Z,58.40
2022-10-31T12:41:18.278Z,79.60
2022-10-31T12:42:18.261Z,79.30
2022-10-31T12:43:18.233Z,87.00
2022-10-31T12:44:18.227Z,72.50
2022-10-31T12:45:18.216Z,72.60
2022-10-31T12:46:18.195Z,53.10
2022-10-31T12:47:18.185Z,64.70
2022-10-31T12:48:18.166Z,66.10
2022-10-31T12:49:18.156Z,78.00
2022-10-31T12:50:18.150Z,69.20
2022-10-31T12:51:18.136Z,61.20
2022-10-31T12:52:18.116Z,72.30
2022-10-31T12:54:18.088Z,70.40
2022-10-31T12:55:18.087Z,65.90
2022-10-31T12:56:18.070Z,65.40
2022-10-31T12:57:18.070Z,65.90